Time;durP1;ratioP1;P1;durP2;ratioP2;P2;SDS_P1;SDS_P2;PMS_P1;PMS_P2;Temp;Humidity;BMP_temperature;BMP_pressure;BME280_temperature;BME280_humidity;BME280_pressure;Samples;Min_cycle;Max_cycle;Signal;HPM_P1;HPM_P2
2023/11/14 00:00:42;;;;;;;7.32;3.00;;;13.50;83.50;;;;;;5061227;28;20027;-64
2023/11/14 00:03:08;;;;;;;10.32;2.92;;;13.50;83.40;;;;;;5063382;28;20028;-64
2023/11/14 00:05:35;;;;;;;13.73;3.45;;;13.50;83.40;;;;;;5051042;28;20140;-64
2023/11/14 00:08:01;;;;;;;16.35;2.85;;;13.50;83.40;;;;;;5065109;28;20024;-64
2023/11/14 00:10:27;;;;;;;14.20;3.15;;;13.50;83.40;;;;;;5046518;28;20111;-64
2023/11/14 00:12:53;;;;;;;18.35;4.18;;;13.50;83.40;;;;;;5060008;28;20036;-64
2023/11/14 00:15:19;;;;;;;11.13;3.42;;;13.50;83.30;;;;;;5053917;28;20473;-64
2023/11/14 00:17:45;;;;;;;12.52;2.53;;;13.50;83.20;;;;;;5059326;28;20035;-63
2023/11/14 00:20:12;;;;;;;6.45;2.78;;;13.50;83.30;;;;;;5042509;28;20072;-63
2023/11/14 00:22:40;;;;;;;9.38;2.10;;;13.50;83.40;;;;;;5045530;28;20098;-63
2023/11/14 00:25:07;;;;;;;13.02;3.50;;;13.50;83.50;;;;;;5041628;28;20032;-63
2023/11/14 00:27:33;;;;;;;10.43;3.13;;;13.50;83.60;;;;;;5062482;28;20033;-63
2023/11/14 00:29:58;;;;;;;11.65;3.10;;;13.50;83.60;;;;;;5059479;28;20017;-63
2023/11/14 00:32:24;;;;;;;9.50;3.13;;;13.50;83.60;;;;;;5062780;28;20045;-63
2023/11/14 00:34:50;;;;;;;14.77;2.95;;;13.50;83.50;;;;;;5059294;28;20028;-64
2023/11/14 00:37:17;;;;;;;8.00;3.65;;;13.50;83.40;;;;;;5063680;28;20051;-63
2023/11/14 00:39:43;;;;;;;12.30;2.95;;;13.50;83.40;;;;;;5057425;28;20055;-64
2023/11/14 00:42:09;;;;;;;14.05;3.78;;;13.50;83.10;;;;;;5049048;28;20155;-63
2023/11/14 00:44:35;;;;;;;7.68;2.60;;;13.50;82.80;;;;;;5063375;28;20035;-64
2023/11/14 00:47:01;;;;;;;9.20;3.45;;;13.60;82.70;;;;;;5067195;28;20512;-63
2023/11/14 00:49:27;;;;;;;14.70;4.13;;;13.70;82.40;;;;;;5061912;28;20606;-64
2023/11/14 00:51:54;;;;;;;9.32;2.95;;;13.70;82.20;;;;;;5045578;28;20037;-64
2023/11/14 00:54:20;;;;;;;17.65;4.00;;;13.70;82.00;;;;;;5060476;28;20174;-64
2023/11/14 00:56:46;;;;;;;11.32;3.28;;;13.70;82.00;;;;;;5058955;28;20037;-64
2023/11/14 00:59:12;;;;;;;9.55;2.63;;;13.70;81.80;;;;;;5041958;28;20032;-63
2023/11/14 01:01:39;;;;;;;7.85;2.55;;;13.80;82.20;;;;;;5064214;28;20541;-64
2023/11/14 01:04:05;;;;;;;12.20;2.80;;;13.80;81.50;;;;;;5058767;28;20056;-63
2023/11/14 01:06:46;;;;;;;18.42;3.55;;;13.80;81.30;;;;;;5090536;27;20392;-63
2023/11/14 01:09:12;;;;;;;11.02;3.17;;;13.80;81.30;;;;;;5064746;28;20051;-62
2023/11/14 01:11:38;;;;;;;11.80;3.13;;;13.80;81.30;;;;;;5072267;28;20068;-62
2023/11/14 01:14:04;;;;;;;8.13;3.28;;;13.80;81.20;;;;;;5063757;28;20073;-62
2023/11/14 01:16:30;;;;;;;8.55;1.98;;;13.80;81.30;;;;;;5070184;28;20406;-63
2023/11/14 01:18:56;;;;;;;10.00;2.90;;;13.90;81.40;;;;;;5065172;28;20032;-63
2023/11/14 01:21:21;;;;;;;11.93;2.65;;;13.80;81.40;;;;;;5077511;28;20098;-62
2023/11/14 01:23:47;;;;;;;14.52;3.58;;;13.80;81.60;;;;;;5064454;28;20586;-62
2023/11/14 01:26:13;;;;;;;10.68;2.88;;;13.80;81.50;;;;;;5052736;28;20375;-63
2023/11/14 01:28:40;;;;;;;14.93;3.55;;;13.80;81.40;;;;;;5066730;28;20046;-63
2023/11/14 01:31:06;;;;;;;10.30;3.95;;;13.80;81.50;;;;;;5073825;28;20601;-63
2023/11/14 01:33:31;;;;;;;11.48;3.42;;;13.80;81.40;;;;;;5069135;28;20032;-62
2023/11/14 01:35:57;;;;;;;19.80;4.65;;;13.80;81.30;;;;;;5070629;28;20020;-63
2023/11/14 01:38:23;;;;;;;12.63;3.33;;;13.80;80.70;;;;;;5067746;28;20377;-67
2023/11/14 01:40:52;;;;;;;7.18;3.30;;;13.90;80.70;;;;;;5068166;28;20861;-62
2023/11/14 01:43:17;;;;;;;13.85;3.85;;;13.90;80.60;;;;;;5066792;28;20025;-62
2023/11/14 01:45:44;;;;;;;15.48;3.40;;;13.90;80.30;;;;;;5067826;28;20546;-63
2023/11/14 01:48:10;;;;;;;18.80;3.22;;;13.90;80.30;;;;;;5067745;28;20024;-63
2023/11/14 01:50:37;;;;;;;12.32;4.15;;;13.90;80.30;;;;;;5068644;28;20499;-63
2023/11/14 01:53:04;;;;;;;12.02;3.13;;;13.90;80.30;;;;;;5057781;28;20048;-62
2023/11/14 01:55:31;;;;;;;13.82;3.45;;;14.00;80.10;;;;;;5070360;28;20043;-62
2023/11/14 01:57:57;;;;;;;10.00;2.72;;;13.90;80.40;;;;;;5064262;28;20047;-63
2023/11/14 02:00:24;;;;;;;7.82;2.92;;;14.00;80.40;;;;;;5072176;28;20479;-63
2023/11/14 02:02:50;;;;;;;18.58;3.83;;;14.00;80.40;;;;;;5067430;28;20162;-63
2023/11/14 02:05:19;;;;;;;15.02;2.80;;;14.00;80.40;;;;;;5071746;28;20049;-63
2023/11/14 02:07:45;;;;;;;12.82;2.65;;;14.00;80.50;;;;;;5056045;28;20090;-62
2023/11/14 02:10:10;;;;;;;11.73;3.63;;;14.00;80.50;;;;;;5071819;28;20426;-62
2023/11/14 02:12:37;;;;;;;13.65;3.95;;;14.00;80.50;;;;;;5068063;28;20020;-63
2023/11/14 02:15:05;;;;;;;8.15;4.13;;;14.00;80.60;;;;;;5073936;28;20081;-63
2023/11/14 02:17:32;;;;;;;15.23;4.72;;;14.00;80.80;;;;;;5062596;28;20060;-63
2023/11/14 02:19:58;;;;;;;13.20;2.67;;;13.90;80.70;;;;;;5061223;28;20033;-62
2023/11/14 02:22:24;;;;;;;17.70;3.08;;;14.00;81.20;;;;;;5057682;28;20082;-62
2023/11/14 02:24:55;;;;;;;17.70;3.67;;;14.00;81.50;;;;;;5038014;28;20526;-63
2023/11/14 02:27:22;;;;;;;6.43;3.30;;;13.90;81.60;;;;;;5057701;28;20040;-63
2023/11/14 02:29:53;;;;;;;12.73;3.22;;;13.90;81.90;;;;;;5057583;28;20267;-63
2023/11/14 02:32:19;;;;;;;13.25;3.85;;;13.90;82.00;;;;;;5054492;28;20040;-63
2023/11/14 02:34:45;;;;;;;14.70;3.75;;;13.90;82.20;;;;;;5057180;28;20025;-63
2023/11/14 02:37:11;;;;;;;14.45;3.10;;;13.80;82.30;;;;;;5054061;28;20048;-63
2023/11/14 02:39:38;;;;;;;6.28;2.70;;;13.80;82.40;;;;;;5058503;28;20028;-63
2023/11/14 02:42:04;;;;;;;11.93;2.58;;;13.80;82.80;;;;;;5056720;28;20028;-67
2023/11/14 02:44:30;;;;;;;10.05;2.50;;;13.80;82.40;;;;;;5061137;28;20535;-67
2023/11/14 02:46:56;;;;;;;13.95;3.63;;;13.90;82.50;;;;;;5053055;28;20116;-68
2023/11/14 02:49:53;;;;;;;8.48;2.78;;;13.90;82.50;;;;;;5052041;28;20099;-67
2023/11/14 02:52:19;;;;;;;6.97;2.58;;;13.80;82.30;;;;;;5048204;28;20108;-67
2023/11/14 02:54:45;;;;;;;6.20;2.78;;;13.80;82.40;;;;;;5050666;28;20578;-67
2023/11/14 02:57:12;;;;;;;10.98;3.75;;;13.80;82.30;;;;;;5046663;28;20115;-67
2023/11/14 02:59:38;;;;;;;9.27;2.50;;;13.80;82.20;;;;;;5051612;28;20040;-67
2023/11/14 03:02:04;;;;;;;11.45;2.47;;;13.90;82.10;;;;;;5046219;28;20020;-67
2023/11/14 03:04:30;;;;;;;17.98;3.65;;;13.90;82.10;;;;;;5051799;28;20519;-67
2023/11/14 03:06:56;;;;;;;8.23;2.90;;;13.90;82.10;;;;;;5054561;28;20069;-67
2023/11/14 03:09:21;;;;;;;16.50;2.58;;;14.00;82.10;;;;;;5051149;28;20561;-68
2023/11/14 03:11:47;;;;;;;12.35;3.33;;;13.90;82.10;;;;;;5058066;28;20108;-67
2023/11/14 03:14:13;;;;;;;18.95;3.58;;;13.90;82.20;;;;;;5061787;28;20388;-67
2023/11/14 03:16:39;;;;;;;10.98;3.08;;;13.90;82.30;;;;;;5048978;28;20140;-67
2023/11/14 03:19:06;;;;;;;14.40;4.32;;;13.90;82.30;;;;;;5053860;28;20488;-68
2023/11/14 03:21:31;;;;;;;17.10;3.72;;;14.00;82.40;;;;;;5049971;28;20033;-68
2023/11/14 03:23:57;;;;;;;15.02;3.13;;;14.00;82.50;;;;;;5059572;28;20086;-67
2023/11/14 03:26:32;;;;;;;10.43;3.25;;;14.00;82.40;;;;;;5061289;28;20021;-63
2023/11/14 03:28:58;;;;;;;9.88;3.55;;;14.00;82.50;;;;;;5052979;28;20041;-63
2023/11/14 03:31:24;;;;;;;17.40;3.53;;;14.00;82.50;;;;;;5049505;28;20025;-67
2023/11/14 03:33:50;;;;;;;9.25;2.83;;;13.90;82.70;;;;;;5056653;28;20436;-63
2023/11/14 03:36:15;;;;;;;18.90;3.65;;;13.90;82.90;;;;;;5055822;28;20104;-62
2023/11/14 03:38:42;;;;;;;13.00;3.33;;;13.90;83.20;;;;;;5054686;28;20399;-62
2023/11/14 03:41:07;;;;;;;9.35;2.88;;;13.90;83.40;;;;;;5047712;28;20033;-62
2023/11/14 03:43:34;;;;;;;8.82;3.10;;;13.90;83.50;;;;;;5051421;28;20037;-63
2023/11/14 03:46:01;;;;;;;9.15;2.88;;;13.80;83.40;;;;;;5051829;28;20025;-63
2023/11/14 03:48:26;;;;;;;11.40;2.25;;;13.80;83.50;;;;;;5054774;28;20033;-63
2023/11/14 03:50:52;;;;;;;11.85;2.60;;;13.80;83.70;;;;;;5050534;28;20438;-62
2023/11/14 03:53:18;;;;;;;9.90;2.75;;;13.80;83.60;;;;;;5052845;28;20071;-63
2023/11/14 03:55:43;;;;;;;12.65;2.90;;;13.80;83.60;;;;;;5053085;28;20082;-62
2023/11/14 03:58:10;;;;;;;13.52;3.42;;;13.80;83.50;;;;;;5053876;28;20391;-63
2023/11/14 04:00:36;;;;;;;16.77;4.07;;;13.80;83.50;;;;;;5054061;28;20056;-62
2023/11/14 04:03:02;;;;;;;19.80;3.03;;;13.80;83.30;;;;;;5053139;28;20083;-62
2023/11/14 04:05:28;;;;;;;13.90;3.10;;;13.80;83.30;;;;;;5054787;28;20055;-62
2023/11/14 04:07:54;;;;;;;15.40;2.85;;;13.80;83.60;;;;;;5054534;28;20037;-62
2023/11/14 04:10:19;;;;;;;6.75;2.58;;;13.80;83.70;;;;;;5050235;28;20021;-67
2023/11/14 04:12:45;;;;;;;6.78;2.72;;;13.80;83.90;;;;;;5055741;28;20025;-67
2023/11/14 04:15:11;;;;;;;5.90;2.08;;;13.80;84.10;;;;;;5053581;28;20079;-67
2023/11/14 04:17:38;;;;;;;17.00;3.40;;;13.80;84.30;;;;;;5040969;28;20442;-62
2023/11/14 04:20:05;;;;;;;8.05;2.22;;;13.80;84.20;;;;;;5056071;28;20029;-67
2023/11/14 04:22:31;;;;;;;9.98;2.30;;;13.80;84.20;;;;;;5052765;28;20036;-63
2023/11/14 04:24:58;;;;;;;8.23;2.28;;;13.80;84.00;;;;;;5055398;28;20135;-62
2023/11/14 04:27:24;;;;;;;12.38;3.60;;;13.80;83.70;;;;;;5050644;28;20021;-63
2023/11/14 04:29:50;;;;;;;14.38;3.25;;;13.80;83.70;;;;;;5057336;28;20017;-68
2023/11/14 04:32:16;;;;;;;7.05;3.53;;;13.80;83.50;;;;;;5055642;28;20035;-68
2023/11/14 04:34:44;;;;;;;13.57;2.65;;;13.80;83.40;;;;;;5051910;28;20028;-67
2023/11/14 04:37:10;;;;;;;12.73;3.10;;;13.90;83.20;;;;;;5054148;28;20035;-62
2023/11/14 04:39:37;;;;;;;8.85;3.28;;;13.90;83.10;;;;;;5055356;28;20028;-63
2023/11/14 04:42:05;;;;;;;14.95;3.25;;;13.90;83.10;;;;;;5048290;28;20043;-63
2023/11/14 04:44:31;;;;;;;11.70;2.78;;;13.90;82.60;;;;;;5058834;28;20021;-63
2023/11/14 04:46:58;;;;;;;14.30;2.38;;;13.90;82.60;;;;;;5043781;28;20032;-63
2023/11/14 04:49:25;;;;;;;7.80;2.63;;;13.90;82.40;;;;;;5049188;28;20036;-63
2023/11/14 04:51:50;;;;;;;7.35;2.70;;;13.80;82.20;;;;;;5045424;28;20029;-63
2023/11/14 04:54:16;;;;;;;10.35;3.05;;;13.80;81.80;;;;;;5047042;28;20028;-62
2023/11/14 04:56:42;;;;;;;6.32;2.47;;;13.90;81.90;;;;;;5045472;28;20033;-63
2023/11/14 04:59:07;;;;;;;15.23;3.80;;;13.90;81.90;;;;;;5052765;28;20040;-63
2023/11/14 05:01:33;;;;;;;7.75;2.88;;;13.90;81.60;;;;;;5047106;28;20041;-63
2023/11/14 05:03:59;;;;;;;9.60;2.45;;;13.90;81.60;;;;;;5055608;28;20021;-68
2023/11/14 05:06:25;;;;;;;12.23;2.90;;;14.00;81.70;;;;;;5059632;28;20548;-67
2023/11/14 05:08:51;;;;;;;16.70;3.45;;;13.90;81.50;;;;;;5058998;28;20058;-67
2023/11/14 05:11:17;;;;;;;14.73;3.85;;;13.90;81.70;;;;;;5057679;28;20052;-68
2023/11/14 05:13:43;;;;;;;21.45;3.17;;;14.00;81.80;;;;;;5054366;28;20029;-68
2023/11/14 05:16:10;;;;;;;14.35;2.78;;;14.00;81.70;;;;;;5053554;28;20048;-67
2023/11/14 05:18:37;;;;;;;10.60;3.47;;;14.00;81.60;;;;;;5054512;28;20040;-67
2023/11/14 05:21:04;;;;;;;13.95;2.78;;;14.00;81.60;;;;;;5051009;28;20384;-63
2023/11/14 05:23:29;;;;;;;11.25;2.45;;;14.00;81.50;;;;;;5045575;28;20028;-62
2023/11/14 05:25:55;;;;;;;11.05;3.28;;;14.00;81.40;;;;;;5052313;28;20270;-67
2023/11/14 05:28:22;;;;;;;14.57;2.97;;;14.00;81.30;;;;;;5052584;28;20432;-68
2023/11/14 05:30:48;;;;;;;8.05;3.35;;;14.00;81.30;;;;;;5055243;28;20144;-67
2023/11/14 05:33:14;;;;;;;10.85;3.13;;;14.10;81.30;;;;;;5055470;28;20021;-68
2023/11/14 05:35:40;;;;;;;8.20;3.10;;;14.10;81.40;;;;;;5050865;28;20048;-67
2023/11/14 05:38:06;;;;;;;12.60;3.15;;;14.10;81.40;;;;;;5059059;28;20458;-68
2023/11/14 05:40:31;;;;;;;11.55;2.17;;;14.00;81.30;;;;;;5057249;28;20040;-63
2023/11/14 05:42:57;;;;;;;12.70;2.72;;;14.10;81.30;;;;;;5053406;28;20033;-63
2023/11/14 05:45:23;;;;;;;13.25;2.90;;;14.10;81.20;;;;;;5052078;28;20024;-63
2023/11/14 05:47:49;;;;;;;17.92;4.40;;;14.10;81.00;;;;;;5053018;28;20029;-63
2023/11/14 05:50:15;;;;;;;13.98;2.80;;;14.20;81.10;;;;;;5055300;28;20043;-63
2023/11/14 05:52:41;;;;;;;16.35;3.50;;;14.20;81.00;;;;;;5055595;28;20029;-63
2023/11/14 05:55:07;;;;;;;15.98;2.97;;;14.20;80.90;;;;;;5053543;28;20033;-63
2023/11/14 05:57:33;;;;;;;8.73;2.75;;;14.20;80.90;;;;;;5054481;28;20489;-63
2023/11/14 05:59:59;;;;;;;9.05;3.05;;;14.20;80.80;;;;;;5054844;28;20037;-63
2023/11/14 06:02:25;;;;;;;37.35;4.00;;;14.30;80.90;;;;;;5052473;28;20087;-63
2023/11/14 06:04:50;;;;;;;19.65;2.90;;;14.30;80.90;;;;;;5057600;28;20585;-63
2023/11/14 06:07:17;;;;;;;16.92;4.03;;;14.30;81.00;;;;;;5054736;28;20043;-63
2023/11/14 06:09:43;;;;;;;15.90;3.67;;;14.30;81.10;;;;;;5054842;28;20144;-63
2023/11/14 06:12:10;;;;;;;12.73;3.85;;;14.30;81.20;;;;;;5060739;28;20535;-63
2023/11/14 06:14:35;;;;;;;14.60;3.33;;;14.20;81.20;;;;;;5050619;28;20037;-63
2023/11/14 06:17:01;;;;;;;23.33;4.82;;;14.20;81.30;;;;;;5062795;28;20438;-63
2023/11/14 06:19:28;;;;;;;9.05;3.35;;;14.20;81.30;;;;;;5055034;28;20412;-63
2023/11/14 06:21:53;;;;;;;6.68;2.85;;;14.20;81.40;;;;;;5055618;28;20028;-63
2023/11/14 06:24:19;;;;;;;10.95;3.10;;;14.20;81.40;;;;;;5060039;28;20064;-63
2023/11/14 06:26:45;;;;;;;12.52;3.30;;;14.20;81.20;;;;;;5059333;28;20024;-64
2023/11/14 06:29:11;;;;;;;6.93;2.38;;;14.20;81.20;;;;;;5049155;28;20052;-63
2023/11/14 06:31:37;;;;;;;12.32;3.58;;;14.20;81.30;;;;;;5051374;28;20252;-63
2023/11/14 06:34:03;;;;;;;11.35;3.03;;;14.20;81.20;;;;;;5049239;28;20043;-63
2023/11/14 06:36:29;;;;;;;12.00;3.60;;;14.20;81.30;;;;;;5052556;28;20361;-64
2023/11/14 06:38:54;;;;;;;14.07;3.83;;;14.20;81.20;;;;;;5054810;28;20048;-63
2023/11/14 06:41:20;;;;;;;21.40;5.05;;;14.20;81.20;;;;;;5050885;28;20039;-63
2023/11/14 06:43:46;;;;;;;11.82;4.07;;;14.20;81.70;;;;;;5055510;28;20028;-63
2023/11/14 06:46:12;;;;;;;10.57;3.00;;;14.20;81.10;;;;;;5053745;28;20033;-64
2023/11/14 06:48:38;;;;;;;9.18;2.67;;;14.20;81.20;;;;;;5052098;28;20021;-63
2023/11/14 06:51:05;;;;;;;13.13;2.92;;;14.10;81.30;;;;;;5051626;28;20037;-63
2023/11/14 06:53:30;;;;;;;9.82;3.95;;;14.20;81.20;;;;;;5052547;28;20252;-64
2023/11/14 06:55:57;;;;;;;11.30;3.13;;;14.20;81.30;;;;;;5056250;28;20416;-64
2023/11/14 06:58:23;;;;;;;20.88;4.65;;;14.10;81.30;;;;;;5047710;28;20025;-63
2023/11/14 07:00:50;;;;;;;8.90;3.42;;;14.10;81.30;;;;;;5051491;28;20400;-64
2023/11/14 07:03:15;;;;;;;16.98;2.60;;;14.10;81.40;;;;;;5053656;28;20032;-63
2023/11/14 07:05:41;;;;;;;13.88;3.25;;;14.10;81.30;;;;;;5048581;28;20388;-68
2023/11/14 07:08:07;;;;;;;13.98;2.80;;;14.10;81.50;;;;;;5056148;28;20037;-68
2023/11/14 07:10:34;;;;;;;10.80;2.00;;;14.10;81.80;;;;;;5058973;28;20391;-68
2023/11/14 07:13:00;;;;;;;10.07;3.63;;;14.10;81.90;;;;;;5063215;28;20387;-68
2023/11/14 07:15:27;;;;;;;9.65;2.70;;;14.10;82.20;;;;;;5057243;28;20032;-68
2023/11/14 07:17:53;;;;;;;17.08;3.08;;;14.00;82.30;;;;;;5054664;28;20036;-68
2023/11/14 07:20:20;;;;;;;10.88;3.22;;;14.00;82.40;;;;;;5059139;28;20079;-68
2023/11/14 07:22:49;;;;;;;14.05;2.97;;;14.00;82.50;;;;;;5061792;28;20234;-68
2023/11/14 07:25:15;;;;;;;9.45;3.35;;;14.00;82.60;;;;;;5053141;28;20446;-68
2023/11/14 07:27:41;;;;;;;7.90;2.28;;;14.00;82.60;;;;;;5064024;28;20111;-63
2023/11/14 07:30:09;;;;;;;7.03;3.08;;;14.00;82.50;;;;;;5050517;28;20484;-63
2023/11/14 07:32:35;;;;;;;12.95;3.47;;;14.00;82.60;;;;;;5055044;28;20120;-63
2023/11/14 07:35:01;;;;;;;19.33;3.33;;;14.00;82.60;;;;;;5050817;28;20119;-63
2023/11/14 07:37:27;;;;;;;12.45;2.65;;;14.00;82.50;;;;;;5059328;28;20025;-63
2023/11/14 07:39:52;;;;;;;13.45;2.97;;;14.10;82.50;;;;;;5052289;28;20033;-63
2023/11/14 07:42:18;;;;;;;12.02;3.45;;;14.10;82.40;;;;;;5049425;28;20395;-64
2023/11/14 07:44:44;;;;;;;10.10;2.20;;;14.10;82.40;;;;;;5047291;28;20034;-63
2023/11/14 07:47:09;;;;;;;11.75;3.78;;;14.00;82.40;;;;;;5051733;28;20025;-63
2023/11/14 07:49:38;;;;;;;8.18;2.42;;;14.10;82.50;;;;;;5049985;28;20044;-63
2023/11/14 07:52:05;;;;;;;21.00;4.18;;;14.10;82.30;;;;;;5050018;28;20031;-63
2023/11/14 07:54:31;;;;;;;8.80;2.70;;;14.10;82.30;;;;;;5053354;28;20583;-64
2023/11/14 07:56:58;;;;;;;8.77;2.35;;;14.10;82.30;;;;;;5052410;28;20028;-63
2023/11/14 07:59:24;;;;;;;15.38;4.43;;;14.10;82.20;;;;;;5043853;28;20029;-63
2023/11/14 08:01:50;;;;;;;13.88;3.90;;;14.10;82.20;;;;;;5042665;28;20068;-63
2023/11/14 08:04:16;;;;;;;6.43;3.33;;;14.10;82.30;;;;;;5048361;28;20036;-63
2023/11/14 08:06:42;;;;;;;8.18;2.97;;;14.10;82.40;;;;;;5054527;28;20052;-63
2023/11/14 08:09:08;;;;;;;7.82;2.55;;;14.10;82.50;;;;;;5051710;28;20462;-63
2023/11/14 08:11:37;;;;;;;7.10;2.95;;;14.10;82.60;;;;;;5056746;28;20072;-63
2023/11/14 08:14:04;;;;;;;9.35;3.05;;;14.10;82.80;;;;;;5044858;28;20029;-63
2023/11/14 08:16:29;;;;;;;12.45;3.25;;;14.10;82.90;;;;;;5056541;28;20040;-63
2023/11/14 08:18:55;;;;;;;16.17;3.30;;;14.10;83.00;;;;;;5056226;28;20045;-68
2023/11/14 08:21:21;;;;;;;15.52;2.40;;;14.10;83.00;;;;;;5048805;28;20032;-68
2023/11/14 08:23:48;;;;;;;8.20;2.78;;;14.20;83.10;;;;;;5049758;28;20079;-68
2023/11/14 08:26:14;;;;;;;10.32;2.25;;;14.20;82.80;;;;;;5054713;28;20364;-68
2023/11/14 08:28:39;;;;;;;7.53;2.92;;;14.20;82.90;;;;;;5046997;28;20025;-68
2023/11/14 08:31:05;;;;;;;9.48;2.83;;;14.20;82.90;;;;;;5055292;28;20499;-68
2023/11/14 08:33:31;;;;;;;11.38;3.30;;;14.20;82.90;;;;;;5055985;28;20028;-68
2023/11/14 08:35:56;;;;;;;7.47;2.45;;;14.10;82.90;;;;;;5054692;28;20028;-63
2023/11/14 08:38:23;;;;;;;12.00;2.20;;;14.10;83.00;;;;;;5046955;28;20377;-63
2023/11/14 08:40:48;;;;;;;8.70;3.10;;;14.10;83.20;;;;;;5045979;28;20497;-63
2023/11/14 08:43:14;;;;;;;11.10;3.95;;;14.10;83.30;;;;;;5037231;28;20048;-63
2023/11/14 08:45:40;;;;;;;11.07;3.00;;;14.00;83.30;;;;;;5052523;28;20029;-63
2023/11/14 08:48:07;;;;;;;13.63;2.80;;;14.00;83.50;;;;;;5055358;28;20486;-63
2023/11/14 08:50:35;;;;;;;10.30;2.70;;;14.00;83.80;;;;;;5042822;28;20034;-63
2023/11/14 08:53:02;;;;;;;10.15;3.05;;;14.00;83.80;;;;;;5051665;28;20043;-63
2023/11/14 08:55:28;;;;;;;8.27;2.95;;;14.10;83.90;;;;;;5053967;28;20391;-62
2023/11/14 08:57:53;;;;;;;21.63;4.30;;;14.10;83.90;;;;;;5047725;28;20035;-62
2023/11/14 09:00:19;;;;;;;9.55;3.30;;;14.10;83.80;;;;;;5049751;28;20033;-62
2023/11/14 09:02:45;;;;;;;16.25;3.40;;;14.10;83.80;;;;;;5050012;28;20098;-62
2023/11/14 09:05:11;;;;;;;8.40;2.42;;;14.10;83.80;;;;;;5043435;28;20052;-63
2023/11/14 09:07:38;;;;;;;4.90;2.53;;;14.10;83.70;;;;;;5054832;28;20502;-62
2023/11/14 09:10:04;;;;;;;7.60;3.15;;;14.10;83.70;;;;;;5050964;28;20029;-63
2023/11/14 09:12:32;;;;;;;9.07;2.50;;;14.00;83.60;;;;;;5054590;28;20067;-65
2023/11/14 09:15:01;;;;;;;16.10;2.85;;;14.00;83.80;;;;;;5050157;28;20040;-66
2023/11/14 09:17:26;;;;;;;10.80;3.45;;;14.00;83.70;;;;;;5045238;28;20502;-66
2023/11/14 09:19:52;;;;;;;9.00;2.80;;;14.10;83.80;;;;;;5058694;28;20034;-67
2023/11/14 09:22:21;;;;;;;6.82;2.58;;;14.10;83.70;;;;;;5043864;28;20481;-67
2023/11/14 09:24:48;;;;;;;8.30;2.90;;;14.20;83.60;;;;;;5047910;28;20391;-66
2023/11/14 09:27:14;;;;;;;10.90;3.25;;;14.10;83.50;;;;;;5054932;28;20482;-67
2023/11/14 09:29:39;;;;;;;7.63;2.03;;;14.10;83.70;;;;;;5061367;28;20136;-67
2023/11/14 09:32:05;;;;;;;8.43;2.08;;;14.10;84.00;;;;;;5056504;28;20051;-67
2023/11/14 09:34:31;;;;;;;7.00;2.70;;;14.10;84.00;;;;;;5052026;28;20090;-67
2023/11/14 09:36:57;;;;;;;10.55;2.70;;;14.20;84.10;;;;;;5054101;28;20128;-67
2023/11/14 09:39:23;;;;;;;10.90;3.50;;;14.20;84.10;;;;;;5048277;28;20028;-67
2023/11/14 09:41:49;;;;;;;5.13;2.55;;;14.20;84.10;;;;;;5052250;28;20369;-67
2023/11/14 09:44:15;;;;;;;10.60;2.80;;;14.20;84.10;;;;;;5053302;28;20052;-66
2023/11/14 09:46:42;;;;;;;7.80;3.33;;;14.20;84.10;;;;;;5063605;28;20028;-67
2023/11/14 09:49:08;;;;;;;9.02;2.75;;;14.30;84.10;;;;;;5063097;28;20415;-66
2023/11/14 09:51:35;;;;;;;10.23;2.42;;;14.30;83.90;;;;;;5052304;28;20025;-66
2023/11/14 09:54:02;;;;;;;13.52;2.63;;;14.40;83.80;;;;;;5050344;28;20488;-67
2023/11/14 09:56:29;;;;;;;15.10;3.42;;;14.40;83.60;;;;;;5051979;28;20112;-67
2023/11/14 09:58:56;;;;;;;6.88;2.08;;;14.40;83.50;;;;;;5052918;28;20030;-62
2023/11/14 10:01:22;;;;;;;14.07;3.40;;;14.40;83.70;;;;;;5057422;28;20123;-62
2023/11/14 10:03:48;;;;;;;8.73;2.78;;;14.50;83.70;;;;;;5054403;28;20033;-67
2023/11/14 10:06:14;;;;;;;7.18;2.38;;;14.50;83.60;;;;;;5055247;28;20064;-66
2023/11/14 10:08:40;;;;;;;9.80;2.65;;;14.50;83.60;;;;;;5052464;28;20035;-62
2023/11/14 10:11:10;;;;;;;7.07;2.05;;;14.50;83.60;;;;;;5045099;28;20476;-62
2023/11/14 10:13:37;;;;;;;4.78;2.45;;;14.50;83.50;;;;;;5053491;28;20527;-62
2023/11/14 10:16:21;;;;;;;8.68;2.50;;;14.50;83.50;;;;;;5059938;28;20107;-66
2023/11/14 10:18:49;;;;;;;12.10;3.50;;;14.50;83.40;;;;;;5052098;28;20064;-62
2023/11/14 10:21:25;;;;;;;11.55;3.45;;;14.50;83.50;;;;;;5052863;28;20035;-62
2023/11/14 10:23:52;;;;;;;8.52;2.33;;;14.60;83.50;;;;;;5047639;28;20510;-63
2023/11/14 10:26:18;;;;;;;10.20;2.80;;;14.60;83.50;;;;;;5055336;28;20028;-62
2023/11/14 10:28:54;;;;;;;17.10;3.38;;;14.70;83.40;;;;;;5057806;28;20036;-63
2023/11/14 10:31:37;;;;;;;11.52;3.10;;;14.70;83.20;;;;;;5059127;28;20021;-63
2023/11/14 10:34:07;;;;;;;11.13;3.20;;;14.90;82.90;;;;;;5041510;28;20037;-63
2023/11/14 10:36:52;;;;;;;11.63;3.20;;;15.10;82.30;;;;;;5048909;28;20048;-63
2023/11/14 10:39:18;;;;;;;8.80;2.25;;;15.30;81.30;;;;;;5048631;28;21586;-62
2023/11/14 10:41:45;;;;;;;14.20;4.45;;;15.40;81.00;;;;;;5031229;28;20037;-62
2023/11/14 10:44:13;;;;;;;8.32;2.95;;;15.50;80.30;;;;;;5042727;28;20072;-63
2023/11/14 10:46:59;;;;;;;6.28;2.55;;;15.60;79.20;;;;;;5039503;28;20037;-63
2023/11/14 10:49:25;;;;;;;9.32;2.80;;;15.50;78.90;;;;;;5055708;28;20039;-63
2023/11/14 10:51:51;;;;;;;8.65;2.58;;;15.50;79.20;;;;;;5032402;28;20021;-63
2023/11/14 10:54:18;;;;;;;10.75;2.95;;;15.40;79.10;;;;;;5055986;28;20129;-63
2023/11/14 10:56:45;;;;;;;16.73;3.22;;;15.40;78.90;;;;;;5043843;28;20063;-63
2023/11/14 10:59:15;;;;;;;10.20;2.63;;;15.40;78.90;;;;;;5041067;28;20377;-63
2023/11/14 11:01:44;;;;;;;17.95;4.47;;;15.50;78.70;;;;;;5035502;28;20087;-62
2023/11/14 11:04:14;;;;;;;8.85;3.47;;;15.40;78.70;;;;;;5042158;28;20657;-63
2023/11/14 11:06:41;;;;;;;9.77;2.10;;;15.40;78.70;;;;;;5038827;28;20053;-63
2023/11/14 11:09:09;;;;;;;12.00;3.25;;;15.40;78.70;;;;;;5048784;28;20418;-63
2023/11/14 11:11:44;;;;;;;8.65;2.78;;;15.40;78.50;;;;;;5048716;28;20025;-63
2023/11/14 11:14:13;;;;;;;10.50;2.85;;;15.40;77.90;;;;;;5048969;28;20025;-63
2023/11/14 11:16:46;;;;;;;9.63;3.15;;;15.40;77.90;;;;;;5056089;28;20028;-62
2023/11/14 11:19:21;;;;;;;4.93;1.95;;;15.50;77.60;;;;;;5051581;28;20025;-63
2023/11/14 11:22:15;;;;;;;9.77;2.03;;;15.40;77.60;;;;;;5046415;28;20033;-63
2023/11/14 11:25:18;;;;;;;12.15;3.20;;;15.40;77.90;;;;;;5048758;28;20044;-63
2023/11/14 11:27:44;;;;;;;10.60;2.35;;;15.40;78.00;;;;;;5053845;28;20551;-61
2023/11/14 11:30:12;;;;;;;15.13;3.33;;;15.30;78.40;;;;;;5051536;28;20103;-62
2023/11/14 11:32:40;;;;;;;12.35;2.38;;;15.20;78.50;;;;;;5056669;28;20086;-62
2023/11/14 11:35:21;;;;;;;12.20;3.40;;;15.30;78.70;;;;;;5055026;28;20082;-62
2023/11/14 11:38:09;;;;;;;9.20;2.67;;;15.30;78.70;;;;;;5051183;28;20038;-62
2023/11/14 11:40:55;;;;;;;8.48;2.60;;;15.30;78.80;;;;;;5057646;28;20029;-66
2023/11/14 11:43:23;;;;;;;6.25;1.75;;;15.30;78.80;;;;;;5053029;28;20033;-67
2023/11/14 11:45:50;;;;;;;8.80;3.63;;;15.40;78.80;;;;;;5054298;28;20028;-67
2023/11/14 11:48:35;;;;;;;15.38;3.28;;;15.40;78.60;;;;;;5048446;28;20043;-67
2023/11/14 11:51:21;;;;;;;4.88;2.15;;;15.50;78.30;;;;;;5058644;28;20044;-67
2023/11/14 11:53:49;;;;;;;9.32;2.60;;;15.40;78.20;;;;;;5050963;28;20430;-63
2023/11/14 11:56:36;;;;;;;8.45;2.50;;;15.40;78.30;;;;;;5049234;28;20444;-62
2023/11/14 11:59:03;;;;;;;8.95;3.08;;;15.40;78.10;;;;;;5052072;28;20037;-62
2023/11/14 12:01:31;;;;;;;5.03;2.33;;;15.40;78.00;;;;;;5050164;28;20033;-63
2023/11/14 12:03:58;;;;;;;7.63;2.30;;;15.40;78.00;;;;;;5057247;28;20036;-62
2023/11/14 12:06:25;;;;;;;3.90;2.15;;;15.40;78.10;;;;;;5045887;28;20046;-62
2023/11/14 12:08:52;;;;;;;6.05;2.40;;;15.50;78.30;;;;;;5049156;28;20029;-62
2023/11/14 12:11:18;;;;;;;11.02;2.88;;;15.50;79.00;;;;;;5049631;28;20024;-62
2023/11/14 12:13:51;;;;;;;6.68;2.45;;;15.50;78.40;;;;;;5041563;28;20529;-62
2023/11/14 12:16:21;;;;;;;8.00;2.10;;;15.50;78.60;;;;;;5047995;28;20025;-62
2023/11/14 12:18:48;;;;;;;5.95;2.38;;;15.40;78.50;;;;;;5052979;28;20616;-62
2023/11/14 12:21:16;;;;;;;5.35;2.35;;;15.40;78.70;;;;;;5052332;28;20033;-67
2023/11/14 12:23:42;;;;;;;8.75;2.47;;;15.30;78.90;;;;;;5053258;28;20561;-66
2023/11/14 12:26:08;;;;;;;4.75;2.53;;;15.20;79.40;;;;;;5058960;28;20115;-67
2023/11/14 12:28:41;;;;;;;7.57;2.00;;;15.20;79.70;;;;;;5058833;28;20539;-67
2023/11/14 12:31:11;;;;;;;5.20;1.88;;;15.20;80.00;;;;;;5053294;28;20029;-67
2023/11/14 12:33:50;;;;;;;12.05;3.15;;;15.20;80.00;;;;;;5048901;28;20041;-63
2023/11/14 12:36:22;;;;;;;6.50;2.35;;;15.20;80.70;;;;;;5052266;28;20021;-62
2023/11/14 12:38:48;;;;;;;11.18;2.78;;;15.20;80.30;;;;;;5051891;28;20039;-67
2023/11/14 12:41:19;;;;;;;3.88;1.58;;;15.10;80.40;;;;;;5049688;28;20534;-67